Weather at McCarran International Airport

Public forecast

Using degrees Fahrenheit for public forecast. Weather courtesy of forecast.io.

Current aviation weather report (METAR) for McCarran International Airport

Retrieved 2020/09/22 01:21 UTC (30 minutes ago):

KLAS 220121Z 14013G24KT 10SM SCT120 SCT220 34/06 A2987 RMK AO2 PK WND 15028/0100 VIRGA SE-S CB DSNT E-S HZ AND FU VC ALQDS T03440061

Aviation forecast (TAF) for McCarran International Airport

Retrieved 2020-09-22 00:22 UTC (1 hour ago):

TAF KLAS 212320Z 2200/2306 15011KT P6SM VCSH SCT120 TEMPO 2200/2201 15020G30KT FM220100 20008KT P6SM FEW120 FM221100 VRB05KT P6SM SKC FM221700 09005KT P6SM FEW120 FEW250 FM222000 20010KT P6SM FEW120 FEW250 FM230200 20007KT P6SM SKC